sensor_id;sensor_type;location;lat;lon;timestamp;temperature;humidity
20590;DHT22;10453;50.810;12.540;2023-05-07T00:04:16;10.40;99.90
20590;DHT22;10453;50.810;12.540;2023-05-07T00:08:34;10.40;99.90
20590;DHT22;10453;50.810;12.540;2023-05-07T00:12:51;10.40;99.90
20590;DHT22;10453;50.810;12.540;2023-05-07T00:17:08;10.50;99.90
20590;DHT22;10453;50.810;12.540;2023-05-07T00:21:26;10.30;99.90
20590;DHT22;10453;50.810;12.540;2023-05-07T00:25:43;10.30;99.90
20590;DHT22;10453;50.810;12.540;2023-05-07T00:30:01;10.30;99.90
20590;DHT22;10453;50.810;12.540;2023-05-07T00:34:18;10.30;99.90
20590;DHT22;10453;50.810;12.540;2023-05-07T00:38:36;10.40;99.90
20590;DHT22;10453;50.810;12.540;2023-05-07T00:42:53;10.40;99.90
20590;DHT22;10453;50.810;12.540;2023-05-07T00:47:14;10.40;99.90
20590;DHT22;10453;50.810;12.540;2023-05-07T00:51:31;10.40;99.90
20590;DHT22;10453;50.810;12.540;2023-05-07T00:55:49;10.40;99.90
20590;DHT22;10453;50.810;12.540;2023-05-07T01:00:08;10.30;99.90
20590;DHT22;10453;50.810;12.540;2023-05-07T01:04:27;10.20;99.90
20590;DHT22;10453;50.810;12.540;2023-05-07T01:08:45;10.30;99.90
20590;DHT22;10453;50.810;12.540;2023-05-07T01:13:03;10.30;99.90
20590;DHT22;10453;50.810;12.540;2023-05-07T01:17:21;10.20;99.90
20590;DHT22;10453;50.810;12.540;2023-05-07T01:21:38;10.40;99.90
20590;DHT22;10453;50.810;12.540;2023-05-07T01:25:56;10.40;99.90
20590;DHT22;10453;50.810;12.540;2023-05-07T01:30:13;10.30;99.90
20590;DHT22;10453;50.810;12.540;2023-05-07T01:34:32;10.30;99.90
20590;DHT22;10453;50.810;12.540;2023-05-07T01:38:50;10.40;99.90
20590;DHT22;10453;50.810;12.540;2023-05-07T01:43:09;10.50;99.90
20590;DHT22;10453;50.810;12.540;2023-05-07T01:47:27;10.30;99.90
20590;DHT22;10453;50.810;12.540;2023-05-07T01:51:46;10.20;99.90
20590;DHT22;10453;50.810;12.540;2023-05-07T01:56:04;10.30;99.90
20590;DHT22;10453;50.810;12.540;2023-05-07T02:00:21;10.30;99.90
20590;DHT22;10453;50.810;12.540;2023-05-07T02:04:39;10.30;99.90
20590;DHT22;10453;50.810;12.540;2023-05-07T02:08:56;10.30;99.90
20590;DHT22;10453;50.810;12.540;2023-05-07T02:13:14;10.30;99.90
20590;DHT22;10453;50.810;12.540;2023-05-07T02:17:31;10.40;99.90
20590;DHT22;10453;50.810;12.540;2023-05-07T02:21:50;10.40;99.90
20590;DHT22;10453;50.810;12.540;2023-05-07T02:26:08;10.30;99.90
20590;DHT22;10453;50.810;12.540;2023-05-07T02:30:25;10.20;99.90
20590;DHT22;10453;50.810;12.540;2023-05-07T02:34:42;10.20;99.90
20590;DHT22;10453;50.810;12.540;2023-05-07T02:39:00;10.20;99.90
20590;DHT22;10453;50.810;12.540;2023-05-07T02:43:17;10.10;99.90
20590;DHT22;10453;50.810;12.540;2023-05-07T02:47:40;10.20;99.90
20590;DHT22;10453;50.810;12.540;2023-05-07T02:51:58;10.10;99.90
20590;DHT22;10453;50.810;12.540;2023-05-07T02:56:15;10.10;99.90
20590;DHT22;10453;50.810;12.540;2023-05-07T03:00:32;9.90;99.90
20590;DHT22;10453;50.810;12.540;2023-05-07T03:04:50;9.70;99.90
20590;DHT22;10453;50.810;12.540;2023-05-07T03:09:07;9.80;99.90
20590;DHT22;10453;50.810;12.540;2023-05-07T03:13:24;9.80;99.90
20590;DHT22;10453;50.810;12.540;2023-05-07T03:17:42;9.70;99.90
20590;DHT22;10453;50.810;12.540;2023-05-07T03:21:59;9.60;99.90
20590;DHT22;10453;50.810;12.540;2023-05-07T03:26:17;9.60;99.90
20590;DHT22;10453;50.810;12.540;2023-05-07T03:30:34;9.50;99.90
20590;DHT22;10453;50.810;12.540;2023-05-07T03:34:51;9.60;99.90
20590;DHT22;10453;50.810;12.540;2023-05-07T03:39:09;9.60;99.90
20590;DHT22;10453;50.810;12.540;2023-05-07T03:43:26;9.50;99.90
20590;DHT22;10453;50.810;12.540;2023-05-07T03:47:43;9.60;99.90
20590;DHT22;10453;50.810;12.540;2023-05-07T03:52:01;9.60;99.90
20590;DHT22;10453;50.810;12.540;2023-05-07T03:56:19;9.60;99.90
20590;DHT22;10453;50.810;12.540;2023-05-07T04:00:36;9.60;99.90
20590;DHT22;10453;50.810;12.540;2023-05-07T04:04:56;9.70;99.90
20590;DHT22;10453;50.810;12.540;2023-05-07T04:09:13;9.60;99.90
20590;DHT22;10453;50.810;12.540;2023-05-07T04:13:31;9.50;99.90
20590;DHT22;10453;50.810;12.540;2023-05-07T04:17:48;9.80;99.90
20590;DHT22;10453;50.810;12.540;2023-05-07T04:22:06;9.90;99.90
20590;DHT22;10453;50.810;12.540;2023-05-07T04:26:23;9.90;99.90
20590;DHT22;10453;50.810;12.540;2023-05-07T04:30:41;9.90;99.90
20590;DHT22;10453;50.810;12.540;2023-05-07T04:34:59;10.00;99.90
20590;DHT22;10453;50.810;12.540;2023-05-07T04:39:16;10.10;99.90
20590;DHT22;10453;50.810;12.540;2023-05-07T04:43:33;10.00;99.90
20590;DHT22;10453;50.810;12.540;2023-05-07T04:47:51;10.20;99.90
20590;DHT22;10453;50.810;12.540;2023-05-07T04:52:08;10.20;99.90
20590;DHT22;10453;50.810;12.540;2023-05-07T04:56:28;10.20;99.90
20590;DHT22;10453;50.810;12.540;2023-05-07T05:00:46;10.40;99.90
20590;DHT22;10453;50.810;12.540;2023-05-07T05:05:04;10.50;99.90
20590;DHT22;10453;50.810;12.540;2023-05-07T05:09:21;10.60;99.90
20590;DHT22;10453;50.810;12.540;2023-05-07T05:13:39;10.90;99.90
20590;DHT22;10453;50.810;12.540;2023-05-07T05:17:56;10.90;99.90
20590;DHT22;10453;50.810;12.540;2023-05-07T05:22:13;10.90;99.90
20590;DHT22;10453;50.810;12.540;2023-05-07T05:26:31;10.80;99.90
20590;DHT22;10453;50.810;12.540;2023-05-07T05:30:49;10.80;99.90
20590;DHT22;10453;50.810;12.540;2023-05-07T05:35:07;11.10;99.90
20590;DHT22;10453;50.810;12.540;2023-05-07T05:39:27;11.40;99.90
20590;DHT22;10453;50.810;12.540;2023-05-07T05:43:44;11.30;99.90
20590;DHT22;10453;50.810;12.540;2023-05-07T05:48:02;11.50;99.90
20590;DHT22;10453;50.810;12.540;2023-05-07T05:52:19;11.40;99.90
20590;DHT22;10453;50.810;12.540;2023-05-07T05:56:37;11.60;99.90
20590;DHT22;10453;50.810;12.540;2023-05-07T06:00:54;11.40;99.90
20590;DHT22;10453;50.810;12.540;2023-05-07T06:05:12;11.30;99.90
20590;DHT22;10453;50.810;12.540;2023-05-07T06:09:29;11.20;99.90
20590;DHT22;10453;50.810;12.540;2023-05-07T06:13:46;11.30;99.90
20590;DHT22;10453;50.810;12.540;2023-05-07T06:18:04;11.30;99.90
20590;DHT22;10453;50.810;12.540;2023-05-07T06:22:21;11.20;99.90
20590;DHT22;10453;50.810;12.540;2023-05-07T06:26:39;11.10;99.90
20590;DHT22;10453;50.810;12.540;2023-05-07T06:31:17;11.20;99.90
20590;DHT22;10453;50.810;12.540;2023-05-07T06:35:37;11.50;99.90
20590;DHT22;10453;50.810;12.540;2023-05-07T06:39:55;11.60;99.90
20590;DHT22;10453;50.810;12.540;2023-05-07T06:44:15;11.50;99.90
20590;DHT22;10453;50.810;12.540;2023-05-07T06:48:33;11.30;99.90
20590;DHT22;10453;50.810;12.540;2023-05-07T06:52:50;11.20;99.90
20590;DHT22;10453;50.810;12.540;2023-05-07T06:57:07;11.30;99.90
20590;DHT22;10453;50.810;12.540;2023-05-07T07:01:25;11.50;99.90
20590;DHT22;10453;50.810;12.540;2023-05-07T07:05:42;11.60;99.90
20590;DHT22;10453;50.810;12.540;2023-05-07T07:10:00;11.50;99.90
20590;DHT22;10453;50.810;12.540;2023-05-07T07:14:17;11.30;99.90
20590;DHT22;10453;50.810;12.540;2023-05-07T07:18:34;11.50;99.90
20590;DHT22;10453;50.810;12.540;2023-05-07T07:22:52;11.90;99.90
20590;DHT22;10453;50.810;12.540;2023-05-07T07:27:10;12.40;99.90
20590;DHT22;10453;50.810;12.540;2023-05-07T07:31:27;12.30;99.90
20590;DHT22;10453;50.810;12.540;2023-05-07T07:35:45;12.50;99.90
20590;DHT22;10453;50.810;12.540;2023-05-07T07:40:02;12.10;99.90
20590;DHT22;10453;50.810;12.540;2023-05-07T07:44:20;11.60;99.90
20590;DHT22;10453;50.810;12.540;2023-05-07T07:48:38;11.40;99.90
20590;DHT22;10453;50.810;12.540;2023-05-07T07:52:55;11.40;99.90
20590;DHT22;10453;50.810;12.540;2023-05-07T07:57:12;11.20;99.90
20590;DHT22;10453;50.810;12.540;2023-05-07T08:01:30;11.10;99.90
20590;DHT22;10453;50.810;12.540;2023-05-07T08:05:48;11.30;99.90
20590;DHT22;10453;50.810;12.540;2023-05-07T08:10:07;11.50;99.90
20590;DHT22;10453;50.810;12.540;2023-05-07T08:14:25;11.50;99.90
20590;DHT22;10453;50.810;12.540;2023-05-07T08:18:43;11.70;99.90
20590;DHT22;10453;50.810;12.540;2023-05-07T08:23:01;11.80;99.90
20590;DHT22;10453;50.810;12.540;2023-05-07T08:27:18;11.70;99.90
20590;DHT22;10453;50.810;12.540;2023-05-07T08:31:35;12.40;99.90
20590;DHT22;10453;50.810;12.540;2023-05-07T08:35:53;12.60;99.90
20590;DHT22;10453;50.810;12.540;2023-05-07T08:40:11;12.70;99.90
20590;DHT22;10453;50.810;12.540;2023-05-07T08:44:34;12.70;99.90
20590;DHT22;10453;50.810;12.540;2023-05-07T08:48:52;12.70;99.90
20590;DHT22;10453;50.810;12.540;2023-05-07T08:53:09;12.60;99.90
20590;DHT22;10453;50.810;12.540;2023-05-07T08:57:27;13.00;99.90
20590;DHT22;10453;50.810;12.540;2023-05-07T09:01:45;13.20;99.90
20590;DHT22;10453;50.810;12.540;2023-05-07T09:06:03;13.80;99.90
20590;DHT22;10453;50.810;12.540;2023-05-07T09:10:20;13.90;99.90
20590;DHT22;10453;50.810;12.540;2023-05-07T09:14:40;13.50;99.90
20590;DHT22;10453;50.810;12.540;2023-05-07T09:18:59;13.30;99.90
20590;DHT22;10453;50.810;12.540;2023-05-07T09:23:17;13.90;99.90
20590;DHT22;10453;50.810;12.540;2023-05-07T09:27:34;13.70;99.90
20590;DHT22;10453;50.810;12.540;2023-05-07T09:31:52;14.10;99.90
20590;DHT22;10453;50.810;12.540;2023-05-07T09:36:10;13.90;99.90
20590;DHT22;10453;50.810;12.540;2023-05-07T09:40:30;15.00;99.90
20590;DHT22;10453;50.810;12.540;2023-05-07T09:44:48;15.00;99.90
20590;DHT22;10453;50.810;12.540;2023-05-07T09:49:07;15.20;99.90
20590;DHT22;10453;50.810;12.540;2023-05-07T09:53:30;15.10;99.90
20590;DHT22;10453;50.810;12.540;2023-05-07T09:57:52;15.80;99.90
20590;DHT22;10453;50.810;12.540;2023-05-07T10:02:10;15.90;99.90
20590;DHT22;10453;50.810;12.540;2023-05-07T10:06:28;15.50;99.90
20590;DHT22;10453;50.810;12.540;2023-05-07T10:10:47;16.00;99.90
20590;DHT22;10453;50.810;12.540;2023-05-07T10:15:09;17.70;99.90
20590;DHT22;10453;50.810;12.540;2023-05-07T10:19:29;16.80;99.90
20590;DHT22;10453;50.810;12.540;2023-05-07T10:23:51;17.60;99.90
20590;DHT22;10453;50.810;12.540;2023-05-07T10:28:12;16.80;99.90
20590;DHT22;10453;50.810;12.540;2023-05-07T10:32:56;17.60;99.90
20590;DHT22;10453;50.810;12.540;2023-05-07T10:37:24;18.30;99.90
20590;DHT22;10453;50.810;12.540;2023-05-07T10:41:42;16.90;99.90
20590;DHT22;10453;50.810;12.540;2023-05-07T10:46:16;16.50;99.90
20590;DHT22;10453;50.810;12.540;2023-05-07T10:50:34;17.30;99.90
20590;DHT22;10453;50.810;12.540;2023-05-07T10:59:35;16.80;99.90
20590;DHT22;10453;50.810;12.540;2023-05-07T11:04:15;17.20;99.90
20590;DHT22;10453;50.810;12.540;2023-05-07T11:08:52;17.50;99.90
20590;DHT22;10453;50.810;12.540;2023-05-07T11:13:10;17.30;99.90
20590;DHT22;10453;50.810;12.540;2023-05-07T11:17:27;16.40;99.90
20590;DHT22;10453;50.810;12.540;2023-05-07T11:21:53;16.90;99.90
20590;DHT22;10453;50.810;12.540;2023-05-07T11:26:11;17.00;99.90
20590;DHT22;10453;50.810;12.540;2023-05-07T11:30:29;16.70;99.90
20590;DHT22;10453;50.810;12.540;2023-05-07T11:34:47;16.80;99.90
20590;DHT22;10453;50.810;12.540;2023-05-07T11:39:04;17.00;99.90
20590;DHT22;10453;50.810;12.540;2023-05-07T11:43:22;16.20;99.90
20590;DHT22;10453;50.810;12.540;2023-05-07T11:47:42;16.40;99.90
20590;DHT22;10453;50.810;12.540;2023-05-07T11:52:00;16.60;99.90
20590;DHT22;10453;50.810;12.540;2023-05-07T11:56:18;15.80;99.90
20590;DHT22;10453;50.810;12.540;2023-05-07T12:00:36;17.00;99.90
20590;DHT22;10453;50.810;12.540;2023-05-07T12:04:54;17.40;99.90
20590;DHT22;10453;50.810;12.540;2023-05-07T12:09:12;17.90;99.90
20590;DHT22;10453;50.810;12.540;2023-05-07T12:13:29;16.90;99.90
20590;DHT22;10453;50.810;12.540;2023-05-07T12:17:46;16.70;99.90
20590;DHT22;10453;50.810;12.540;2023-05-07T12:22:05;16.70;99.90
20590;DHT22;10453;50.810;12.540;2023-05-07T12:26:23;16.60;99.90
20590;DHT22;10453;50.810;12.540;2023-05-07T12:30:46;17.60;99.90
20590;DHT22;10453;50.810;12.540;2023-05-07T12:35:05;17.20;99.90
20590;DHT22;10453;50.810;12.540;2023-05-07T12:39:23;17.10;99.90
20590;DHT22;10453;50.810;12.540;2023-05-07T12:43:44;17.80;99.90
20590;DHT22;10453;50.810;12.540;2023-05-07T12:48:02;17.70;99.90
20590;DHT22;10453;50.810;12.540;2023-05-07T12:52:20;18.00;99.90
20590;DHT22;10453;50.810;12.540;2023-05-07T12:56:38;18.30;99.90
20590;DHT22;10453;50.810;12.540;2023-05-07T13:00:58;18.10;99.90
20590;DHT22;10453;50.810;12.540;2023-05-07T13:05:17;17.70;99.90
20590;DHT22;10453;50.810;12.540;2023-05-07T13:09:36;16.90;99.90
20590;DHT22;10453;50.810;12.540;2023-05-07T13:13:54;16.20;99.90
20590;DHT22;10453;50.810;12.540;2023-05-07T13:18:12;16.40;99.90
20590;DHT22;10453;50.810;12.540;2023-05-07T13:22:29;16.40;99.90
20590;DHT22;10453;50.810;12.540;2023-05-07T13:26:47;16.50;99.90
20590;DHT22;10453;50.810;12.540;2023-05-07T13:31:05;16.80;99.90
20590;DHT22;10453;50.810;12.540;2023-05-07T13:35:23;16.60;99.90
20590;DHT22;10453;50.810;12.540;2023-05-07T13:39:40;16.80;99.90
20590;DHT22;10453;50.810;12.540;2023-05-07T13:44:02;17.10;99.90
20590;DHT22;10453;50.810;12.540;2023-05-07T13:48:19;17.10;99.90
20590;DHT22;10453;50.810;12.540;2023-05-07T13:52:43;17.20;99.90
20590;DHT22;10453;50.810;12.540;2023-05-07T13:57:08;17.50;99.90
20590;DHT22;10453;50.810;12.540;2023-05-07T14:01:27;17.70;99.90
20590;DHT22;10453;50.810;12.540;2023-05-07T14:05:44;18.10;99.90
20590;DHT22;10453;50.810;12.540;2023-05-07T14:10:05;18.10;99.90
20590;DHT22;10453;50.810;12.540;2023-05-07T14:14:23;19.30;99.90
20590;DHT22;10453;50.810;12.540;2023-05-07T14:18:41;20.50;99.50
20590;DHT22;10453;50.810;12.540;2023-05-07T14:22:59;19.60;99.90
20590;DHT22;10453;50.810;12.540;2023-05-07T14:27:16;19.60;99.90
20590;DHT22;10453;50.810;12.540;2023-05-07T14:31:33;19.10;99.90
20590;DHT22;10453;50.810;12.540;2023-05-07T14:35:51;19.10;99.90
20590;DHT22;10453;50.810;12.540;2023-05-07T14:40:09;19.30;99.90
20590;DHT22;10453;50.810;12.540;2023-05-07T14:44:27;19.90;99.90
20590;DHT22;10453;50.810;12.540;2023-05-07T14:48:45;19.50;99.30
20590;DHT22;10453;50.810;12.540;2023-05-07T14:53:03;20.00;98.30
20590;DHT22;10453;50.810;12.540;2023-05-07T14:57:21;19.30;99.40
20590;DHT22;10453;50.810;12.540;2023-05-07T15:01:38;19.20;97.40
20590;DHT22;10453;50.810;12.540;2023-05-07T15:06:00;19.40;98.70
20590;DHT22;10453;50.810;12.540;2023-05-07T15:10:17;19.40;98.70
20590;DHT22;10453;50.810;12.540;2023-05-07T15:14:35;19.80;96.90
20590;DHT22;10453;50.810;12.540;2023-05-07T15:18:53;19.60;96.90
20590;DHT22;10453;50.810;12.540;2023-05-07T15:23:11;20.20;96.40
20590;DHT22;10453;50.810;12.540;2023-05-07T15:27:31;19.20;97.00
20590;DHT22;10453;50.810;12.540;2023-05-07T15:31:50;19.20;98.10
20590;DHT22;10453;50.810;12.540;2023-05-07T15:36:08;18.80;99.20
20590;DHT22;10453;50.810;12.540;2023-05-07T15:40:26;18.50;99.70
20590;DHT22;10453;50.810;12.540;2023-05-07T15:44:44;18.00;99.90
20590;DHT22;10453;50.810;12.540;2023-05-07T15:49:02;17.60;99.90
20590;DHT22;10453;50.810;12.540;2023-05-07T15:53:21;17.40;99.90
20590;DHT22;10453;50.810;12.540;2023-05-07T15:57:39;17.30;99.90
20590;DHT22;10453;50.810;12.540;2023-05-07T16:01:57;17.00;99.90
20590;DHT22;10453;50.810;12.540;2023-05-07T16:06:15;17.00;99.90
20590;DHT22;10453;50.810;12.540;2023-05-07T16:10:33;16.30;99.90
20590;DHT22;10453;50.810;12.540;2023-05-07T16:14:50;16.30;99.90
20590;DHT22;10453;50.810;12.540;2023-05-07T16:19:08;16.10;99.90
20590;DHT22;10453;50.810;12.540;2023-05-07T16:23:26;15.90;99.90
20590;DHT22;10453;50.810;12.540;2023-05-07T16:27:44;15.80;99.90
20590;DHT22;10453;50.810;12.540;2023-05-07T16:32:02;15.70;99.90
20590;DHT22;10453;50.810;12.540;2023-05-07T16:36:20;15.80;99.90
20590;DHT22;10453;50.810;12.540;2023-05-07T16:40:40;15.60;99.90
20590;DHT22;10453;50.810;12.540;2023-05-07T16:44:59;15.40;99.90
20590;DHT22;10453;50.810;12.540;2023-05-07T16:49:17;15.30;99.90
20590;DHT22;10453;50.810;12.540;2023-05-07T16:53:35;15.40;99.90
20590;DHT22;10453;50.810;12.540;2023-05-07T16:57:55;15.40;99.90
20590;DHT22;10453;50.810;12.540;2023-05-07T17:02:14;15.30;99.90
20590;DHT22;10453;50.810;12.540;2023-05-07T17:06:32;15.30;99.90
20590;DHT22;10453;50.810;12.540;2023-05-07T17:10:49;15.10;99.90
20590;DHT22;10453;50.810;12.540;2023-05-07T17:15:07;14.90;99.90
20590;DHT22;10453;50.810;12.540;2023-05-07T17:19:25;14.80;99.90
20590;DHT22;10453;50.810;12.540;2023-05-07T17:23:42;14.90;99.90
20590;DHT22;10453;50.810;12.540;2023-05-07T17:28:00;14.90;99.90
20590;DHT22;10453;50.810;12.540;2023-05-07T17:32:18;14.60;99.90
20590;DHT22;10453;50.810;12.540;2023-05-07T17:36:35;14.60;99.90
20590;DHT22;10453;50.810;12.540;2023-05-07T17:40:54;14.60;99.90
20590;DHT22;10453;50.810;12.540;2023-05-07T17:45:12;14.40;99.90
20590;DHT22;10453;50.810;12.540;2023-05-07T17:49:30;14.40;99.90
20590;DHT22;10453;50.810;12.540;2023-05-07T17:53:47;14.20;99.90
20590;DHT22;10453;50.810;12.540;2023-05-07T17:58:07;14.00;99.90
20590;DHT22;10453;50.810;12.540;2023-05-07T18:02:26;13.90;99.90
20590;DHT22;10453;50.810;12.540;2023-05-07T18:06:45;13.80;99.90
20590;DHT22;10453;50.810;12.540;2023-05-07T18:11:09;13.70;99.90
20590;DHT22;10453;50.810;12.540;2023-05-07T18:15:27;13.50;99.90
20590;DHT22;10453;50.810;12.540;2023-05-07T18:19:46;13.40;99.90
20590;DHT22;10453;50.810;12.540;2023-05-07T18:24:05;13.20;99.90
20590;DHT22;10453;50.810;12.540;2023-05-07T18:28:23;13.00;99.90
20590;DHT22;10453;50.810;12.540;2023-05-07T18:32:41;12.90;99.90
20590;DHT22;10453;50.810;12.540;2023-05-07T18:36:59;12.80;99.90
20590;DHT22;10453;50.810;12.540;2023-05-07T18:41:22;12.60;99.90
20590;DHT22;10453;50.810;12.540;2023-05-07T18:45:41;12.30;99.90
20590;DHT22;10453;50.810;12.540;2023-05-07T18:50:00;12.20;99.90
20590;DHT22;10453;50.810;12.540;2023-05-07T18:54:18;12.00;99.90
20590;DHT22;10453;50.810;12.540;2023-05-07T18:58:36;11.90;99.90
20590;DHT22;10453;50.810;12.540;2023-05-07T19:02:53;11.80;99.90
20590;DHT22;10453;50.810;12.540;2023-05-07T19:07:12;11.70;99.90
20590;DHT22;10453;50.810;12.540;2023-05-07T19:11:30;11.60;99.90
20590;DHT22;10453;50.810;12.540;2023-05-07T19:15:47;11.50;99.90
20590;DHT22;10453;50.810;12.540;2023-05-07T19:20:06;11.30;99.90
20590;DHT22;10453;50.810;12.540;2023-05-07T19:24:29;11.20;99.90
20590;DHT22;10453;50.810;12.540;2023-05-07T19:28:48;11.10;99.90
20590;DHT22;10453;50.810;12.540;2023-05-07T19:33:26;11.10;99.90
20590;DHT22;10453;50.810;12.540;2023-05-07T19:37:46;10.90;99.90
20590;DHT22;10453;50.810;12.540;2023-05-07T19:42:04;10.80;99.90
20590;DHT22;10453;50.810;12.540;2023-05-07T19:46:22;10.80;99.90
20590;DHT22;10453;50.810;12.540;2023-05-07T19:50:41;10.70;99.90
20590;DHT22;10453;50.810;12.540;2023-05-07T19:55:01;10.60;99.90
20590;DHT22;10453;50.810;12.540;2023-05-07T19:59:20;10.60;99.90
20590;DHT22;10453;50.810;12.540;2023-05-07T20:03:37;10.50;99.90
20590;DHT22;10453;50.810;12.540;2023-05-07T20:07:56;10.40;99.90
20590;DHT22;10453;50.810;12.540;2023-05-07T20:12:13;10.40;99.90
20590;DHT22;10453;50.810;12.540;2023-05-07T20:16:31;10.30;99.90
20590;DHT22;10453;50.810;12.540;2023-05-07T20:20:49;10.20;99.90
20590;DHT22;10453;50.810;12.540;2023-05-07T20:25:07;10.20;99.90
20590;DHT22;10453;50.810;12.540;2023-05-07T20:29:25;10.10;99.90
20590;DHT22;10453;50.810;12.540;2023-05-07T20:33:45;10.10;99.90
20590;DHT22;10453;50.810;12.540;2023-05-07T20:38:03;10.00;99.90
20590;DHT22;10453;50.810;12.540;2023-05-07T20:42:21;9.90;99.90
20590;DHT22;10453;50.810;12.540;2023-05-07T20:46:38;9.80;99.90
20590;DHT22;10453;50.810;12.540;2023-05-07T20:50:56;9.80;99.90
20590;DHT22;10453;50.810;12.540;2023-05-07T20:55:14;9.70;99.90
20590;DHT22;10453;50.810;12.540;2023-05-07T20:59:32;9.60;99.90
20590;DHT22;10453;50.810;12.540;2023-05-07T21:03:51;9.60;99.90
20590;DHT22;10453;50.810;12.540;2023-05-07T21:08:10;9.50;99.90
20590;DHT22;10453;50.810;12.540;2023-05-07T21:12:27;9.50;99.90
20590;DHT22;10453;50.810;12.540;2023-05-07T21:16:45;9.40;99.90
20590;DHT22;10453;50.810;12.540;2023-05-07T21:21:09;9.20;99.90
20590;DHT22;10453;50.810;12.540;2023-05-07T21:25:27;8.90;99.90
20590;DHT22;10453;50.810;12.540;2023-05-07T21:29:44;8.90;99.90
20590;DHT22;10453;50.810;12.540;2023-05-07T21:34:02;8.70;99.90
20590;DHT22;10453;50.810;12.540;2023-05-07T21:38:19;8.40;99.90
20590;DHT22;10453;50.810;12.540;2023-05-07T21:42:36;8.20;99.90
20590;DHT22;10453;50.810;12.540;2023-05-07T21:46:54;8.20;99.90
20590;DHT22;10453;50.810;12.540;2023-05-07T21:51:11;8.00;99.90
20590;DHT22;10453;50.810;12.540;2023-05-07T21:55:29;7.90;99.90
20590;DHT22;10453;50.810;12.540;2023-05-07T21:59:46;7.80;99.90
20590;DHT22;10453;50.810;12.540;2023-05-07T22:04:04;7.80;99.90
20590;DHT22;10453;50.810;12.540;2023-05-07T22:08:22;8.00;99.90
20590;DHT22;10453;50.810;12.540;2023-05-07T22:12:41;8.10;99.90
20590;DHT22;10453;50.810;12.540;2023-05-07T22:16:59;8.10;99.90
20590;DHT22;10453;50.810;12.540;2023-05-07T22:21:16;8.10;99.90
20590;DHT22;10453;50.810;12.540;2023-05-07T22:25:33;8.20;99.90
20590;DHT22;10453;50.810;12.540;2023-05-07T22:29:51;8.20;99.90
20590;DHT22;10453;50.810;12.540;2023-05-07T22:34:09;8.20;99.90
20590;DHT22;10453;50.810;12.540;2023-05-07T22:38:26;8.30;99.90
20590;DHT22;10453;50.810;12.540;2023-05-07T22:42:43;8.20;99.90
20590;DHT22;10453;50.810;12.540;2023-05-07T22:47:00;8.40;99.90
20590;DHT22;10453;50.810;12.540;2023-05-07T22:51:18;8.50;99.90
20590;DHT22;10453;50.810;12.540;2023-05-07T22:55:35;8.60;99.90
20590;DHT22;10453;50.810;12.540;2023-05-07T22:59:56;8.60;99.90
20590;DHT22;10453;50.810;12.540;2023-05-07T23:04:23;8.50;99.90
20590;DHT22;10453;50.810;12.540;2023-05-07T23:08:41;8.60;99.90
20590;DHT22;10453;50.810;12.540;2023-05-07T23:12:58;8.60;99.90
20590;DHT22;10453;50.810;12.540;2023-05-07T23:17:16;8.50;99.90
20590;DHT22;10453;50.810;12.540;2023-05-07T23:21:33;8.50;99.90
20590;DHT22;10453;50.810;12.540;2023-05-07T23:25:51;8.40;99.90
20590;DHT22;10453;50.810;12.540;2023-05-07T23:30:09;8.30;99.90
20590;DHT22;10453;50.810;12.540;2023-05-07T23:34:27;8.30;99.90
20590;DHT22;10453;50.810;12.540;2023-05-07T23:38:44;8.30;99.90
20590;DHT22;10453;50.810;12.540;2023-05-07T23:43:05;8.30;99.90
20590;DHT22;10453;50.810;12.540;2023-05-07T23:47:22;8.30;99.90
20590;DHT22;10453;50.810;12.540;2023-05-07T23:51:40;8.20;99.90
20590;DHT22;10453;50.810;12.540;2023-05-07T23:55:57;8.20;99.90
